sensor_id;sensor_type;location;lat;lon;timestamp;pressure;altitude;pressure_sealevel;temperature;humidity
6514;BME280;3290;47.716;9.070;2024-01-16T00:00:48;96440.09;;;0.47;69.60
6514;BME280;3290;47.716;9.070;2024-01-16T00:03:14;96447.69;;;0.17;70.99
6514;BME280;3290;47.716;9.070;2024-01-16T00:05:39;96446.91;;;0.01;72.20
6514;BME280;3290;47.716;9.070;2024-01-16T00:08:05;96448.06;;;-0.17;73.23
6514;BME280;3290;47.716;9.070;2024-01-16T00:10:30;96451.41;;;-0.09;73.25
6514;BME280;3290;47.716;9.070;2024-01-16T00:12:56;96451.75;;;-0.12;73.43
6514;BME280;3290;47.716;9.070;2024-01-16T00:15:21;96446.91;;;0.01;74.00
6514;BME280;3290;47.716;9.070;2024-01-16T00:17:46;96445.63;;;-0.27;74.95
6514;BME280;3290;47.716;9.070;2024-01-16T00:20:12;96452.09;;;-0.07;74.65
6514;BME280;3290;47.716;9.070;2024-01-16T00:22:37;96456.91;;;-0.12;75.37
6514;BME280;3290;47.716;9.070;2024-01-16T00:25:03;96453.84;;;-0.23;75.40
6514;BME280;3290;47.716;9.070;2024-01-16T00:27:29;96453.50;;;-0.44;76.24
6514;BME280;3290;47.716;9.070;2024-01-16T00:29:54;96454.31;;;-0.36;77.18
6514;BME280;3290;47.716;9.070;2024-01-16T00:32:19;96462.53;;;-0.24;76.54
6514;BME280;3290;47.716;9.070;2024-01-16T00:34:45;96461.41;;;-0.14;76.17
6514;BME280;3290;47.716;9.070;2024-01-16T00:37:10;96459.75;;;-0.39;77.05
6514;BME280;3290;47.716;9.070;2024-01-16T00:39:36;96460.59;;;-0.38;77.27
6514;BME280;3290;47.716;9.070;2024-01-16T00:42:02;96468.47;;;-0.40;77.46
6514;BME280;3290;47.716;9.070;2024-01-16T00:44:28;96464.13;;;-0.39;77.85
6514;BME280;3290;47.716;9.070;2024-01-16T00:46:53;96468.41;;;-0.71;78.92
6514;BME280;3290;47.716;9.070;2024-01-16T00:49:19;96467.00;;;-0.50;78.45
6514;BME280;3290;47.716;9.070;2024-01-16T00:51:44;96469.84;;;-0.69;79.30
6514;BME280;3290;47.716;9.070;2024-01-16T00:54:10;96476.25;;;-0.73;79.23
6514;BME280;3290;47.716;9.070;2024-01-16T00:56:35;96489.16;;;-1.06;80.87
6514;BME280;3290;47.716;9.070;2024-01-16T00:59:01;96480.47;;;-0.64;80.10
6514;BME280;3290;47.716;9.070;2024-01-16T01:01:27;96481.94;;;-0.53;79.70
6514;BME280;3290;47.716;9.070;2024-01-16T01:03:52;96479.88;;;-0.42;78.69
6514;BME280;3290;47.716;9.070;2024-01-16T01:06:18;96483.25;;;-0.41;79.78
6514;BME280;3290;47.716;9.070;2024-01-16T01:08:44;96489.97;;;-0.56;80.08
6514;BME280;3290;47.716;9.070;2024-01-16T01:11:09;96481.94;;;-0.61;80.33
6514;BME280;3290;47.716;9.070;2024-01-16T01:13:34;96482.56;;;-0.59;80.10
6514;BME280;3290;47.716;9.070;2024-01-16T01:16:00;96481.84;;;-0.85;80.61
6514;BME280;3290;47.716;9.070;2024-01-16T01:18:26;96481.72;;;-0.76;81.07
6514;BME280;3290;47.716;9.070;2024-01-16T01:20:51;96495.00;;;-0.88;81.56
6514;BME280;3290;47.716;9.070;2024-01-16T01:23:17;96499.34;;;-0.88;81.23
6514;BME280;3290;47.716;9.070;2024-01-16T01:25:42;96498.56;;;-0.81;80.57
6514;BME280;3290;47.716;9.070;2024-01-16T01:28:08;96503.00;;;-0.99;81.75
6514;BME280;3290;47.716;9.070;2024-01-16T01:30:33;96510.13;;;-0.85;81.19
6514;BME280;3290;47.716;9.070;2024-01-16T01:32:59;96506.13;;;-0.80;81.12
6514;BME280;3290;47.716;9.070;2024-01-16T01:35:24;96499.75;;;-0.68;80.14
6514;BME280;3290;47.716;9.070;2024-01-16T01:37:49;96499.47;;;-0.49;79.49
6514;BME280;3290;47.716;9.070;2024-01-16T01:40:15;96492.88;;;-0.59;79.87
6514;BME280;3290;47.716;9.070;2024-01-16T01:42:44;96494.34;;;-0.49;79.70
6514;BME280;3290;47.716;9.070;2024-01-16T01:45:10;96503.31;;;-0.53;80.35
6514;BME280;3290;47.716;9.070;2024-01-16T01:47:37;96503.16;;;-0.59;80.67
6514;BME280;3290;47.716;9.070;2024-01-16T01:50:03;96503.59;;;-0.72;80.92
6514;BME280;3290;47.716;9.070;2024-01-16T01:52:30;96506.94;;;-0.79;81.45
6514;BME280;3290;47.716;9.070;2024-01-16T01:54:56;96508.69;;;-0.80;81.83
6514;BME280;3290;47.716;9.070;2024-01-16T01:57:23;96514.88;;;-0.65;80.89
6514;BME280;3290;47.716;9.070;2024-01-16T01:59:49;96508.78;;;-0.56;80.50
6514;BME280;3290;47.716;9.070;2024-01-16T02:02:14;96509.72;;;-0.65;80.76
6514;BME280;3290;47.716;9.070;2024-01-16T02:04:40;96502.00;;;-0.65;80.80
6514;BME280;3290;47.716;9.070;2024-01-16T02:07:08;96509.28;;;-0.52;80.12
6514;BME280;3290;47.716;9.070;2024-01-16T02:09:34;96507.28;;;-0.74;80.49
6514;BME280;3290;47.716;9.070;2024-01-16T02:12:00;96504.28;;;-0.95;80.94
6514;BME280;3290;47.716;9.070;2024-01-16T02:14:25;96493.63;;;-0.75;81.26
6514;BME280;3290;47.716;9.070;2024-01-16T02:16:51;96494.84;;;-0.86;81.32
6514;BME280;3290;47.716;9.070;2024-01-16T02:19:16;96480.59;;;-0.73;80.92
6514;BME280;3290;47.716;9.070;2024-01-16T02:21:49;96491.91;;;-0.50;80.06
6514;BME280;3290;47.716;9.070;2024-01-16T02:24:15;96482.25;;;-0.56;79.92
6514;BME280;3290;47.716;9.070;2024-01-16T02:26:42;96479.06;;;-0.27;78.45
6514;BME280;3290;47.716;9.070;2024-01-16T02:29:07;96480.03;;;-0.36;78.79
6514;BME280;3290;47.716;9.070;2024-01-16T02:31:33;96480.94;;;-0.68;79.96
6514;BME280;3290;47.716;9.070;2024-01-16T02:33:59;96478.34;;;-0.84;81.12
6514;BME280;3290;47.716;9.070;2024-01-16T02:36:25;96476.34;;;-0.98;82.22
6514;BME280;3290;47.716;9.070;2024-01-16T02:38:51;96482.22;;;-1.13;83.77
6514;BME280;3290;47.716;9.070;2024-01-16T02:41:18;96475.41;;;-0.89;82.37
6514;BME280;3290;47.716;9.070;2024-01-16T02:43:44;96474.13;;;-0.85;82.13
6514;BME280;3290;47.716;9.070;2024-01-16T02:46:10;96483.09;;;-0.97;81.88
6514;BME280;3290;47.716;9.070;2024-01-16T02:48:38;96481.16;;;-0.95;82.88
6514;BME280;3290;47.716;9.070;2024-01-16T02:51:04;96483.09;;;-0.97;83.25
6514;BME280;3290;47.716;9.070;2024-01-16T02:53:30;96481.56;;;-0.82;83.34
6514;BME280;3290;47.716;9.070;2024-01-16T02:55:56;96485.75;;;-0.73;82.89
6514;BME280;3290;47.716;9.070;2024-01-16T02:58:28;96491.91;;;-0.50;81.63
6514;BME280;3290;47.716;9.070;2024-01-16T03:00:54;96483.88;;;-0.55;81.77
6514;BME280;3290;47.716;9.070;2024-01-16T03:03:19;96484.81;;;-0.64;81.83
6514;BME280;3290;47.716;9.070;2024-01-16T03:05:46;96486.41;;;-0.71;82.12
6514;BME280;3290;47.716;9.070;2024-01-16T03:08:11;96479.66;;;-0.64;82.45
6514;BME280;3290;47.716;9.070;2024-01-16T03:10:37;96487.94;;;-0.86;83.83
6514;BME280;3290;47.716;9.070;2024-01-16T03:13:02;96482.66;;;-0.84;83.44
6514;BME280;3290;47.716;9.070;2024-01-16T03:15:28;96482.69;;;-0.69;83.09
6514;BME280;3290;47.716;9.070;2024-01-16T03:17:56;96478.00;;;-0.81;82.32
6514;BME280;3290;47.716;9.070;2024-01-16T03:20:21;96482.47;;;-0.42;82.02
6514;BME280;3290;47.716;9.070;2024-01-16T03:22:48;96472.13;;;-0.50;82.06
6514;BME280;3290;47.716;9.070;2024-01-16T03:25:14;96466.66;;;-0.55;82.24
6514;BME280;3290;47.716;9.070;2024-01-16T03:27:39;96470.66;;;-0.60;82.43
6514;BME280;3290;47.716;9.070;2024-01-16T03:30:06;96477.06;;;-0.72;82.40
6514;BME280;3290;47.716;9.070;2024-01-16T03:32:33;96484.59;;;-1.20;83.55
6514;BME280;3290;47.716;9.070;2024-01-16T03:34:59;96477.53;;;-1.18;84.51
6514;BME280;3290;47.716;9.070;2024-01-16T03:37:24;96472.75;;;-1.13;84.44
6514;BME280;3290;47.716;9.070;2024-01-16T03:39:50;96473.69;;;-1.21;84.27
6514;BME280;3290;47.716;9.070;2024-01-16T03:42:15;96468.84;;;-1.24;84.43
6514;BME280;3290;47.716;9.070;2024-01-16T03:44:41;96471.16;;;-1.06;83.50
6514;BME280;3290;47.716;9.070;2024-01-16T03:47:07;96466.44;;;-0.85;82.86
6514;BME280;3290;47.716;9.070;2024-01-16T03:49:33;96471.63;;;-0.69;82.20
6514;BME280;3290;47.716;9.070;2024-01-16T03:51:59;96461.34;;;-0.69;81.59
6514;BME280;3290;47.716;9.070;2024-01-16T03:54:24;96463.56;;;-0.74;81.98
6514;BME280;3290;47.716;9.070;2024-01-16T03:56:50;96465.78;;;-0.79;81.94
6514;BME280;3290;47.716;9.070;2024-01-16T03:59:16;96471.81;;;-0.63;81.74
6514;BME280;3290;47.716;9.070;2024-01-16T04:01:41;96474.69;;;-0.66;81.88
6514;BME280;3290;47.716;9.070;2024-01-16T04:04:09;96476.00;;;-0.54;81.08
6514;BME280;3290;47.716;9.070;2024-01-16T04:06:36;96469.06;;;-0.61;81.63
6514;BME280;3290;47.716;9.070;2024-01-16T04:09:01;96461.63;;;-0.72;82.49
6514;BME280;3290;47.716;9.070;2024-01-16T04:11:28;96457.78;;;-0.76;82.42
6514;BME280;3290;47.716;9.070;2024-01-16T04:13:54;96457.69;;;-1.08;84.13
6514;BME280;3290;47.716;9.070;2024-01-16T04:16:20;96452.44;;;-0.90;83.59
6514;BME280;3290;47.716;9.070;2024-01-16T04:18:45;96453.97;;;-1.05;83.99
6514;BME280;3290;47.716;9.070;2024-01-16T04:21:11;96460.25;;;-1.08;84.00
6514;BME280;3290;47.716;9.070;2024-01-16T04:23:36;96446.44;;;-1.07;83.93
6514;BME280;3290;47.716;9.070;2024-01-16T04:26:02;96445.19;;;-0.95;83.36
6514;BME280;3290;47.716;9.070;2024-01-16T04:28:27;96445.72;;;-1.24;83.91
6514;BME280;3290;47.716;9.070;2024-01-16T04:30:53;96439.78;;;-1.25;83.97
6514;BME280;3290;47.716;9.070;2024-01-16T04:33:18;96442.06;;;-1.14;82.67
6514;BME280;3290;47.716;9.070;2024-01-16T04:35:44;96444.38;;;-0.95;81.99
6514;BME280;3290;47.716;9.070;2024-01-16T04:38:09;96444.00;;;-1.49;83.26
6514;BME280;3290;47.716;9.070;2024-01-16T04:40:35;96446.00;;;-1.35;83.05
6514;BME280;3290;47.716;9.070;2024-01-16T04:43:00;96451.69;;;-1.16;82.62
6514;BME280;3290;47.716;9.070;2024-01-16T04:45:26;96455.31;;;-1.01;81.98
6514;BME280;3290;47.716;9.070;2024-01-16T04:47:51;96462.97;;;-1.09;82.01
6514;BME280;3290;47.716;9.070;2024-01-16T04:50:18;96449.66;;;-1.05;83.07
6514;BME280;3290;47.716;9.070;2024-01-16T04:52:43;96456.66;;;-1.22;83.20
6514;BME280;3290;47.716;9.070;2024-01-16T04:55:09;96450.16;;;-1.01;83.85
6514;BME280;3290;47.716;9.070;2024-01-16T04:57:34;96461.94;;;-0.91;83.38
6514;BME280;3290;47.716;9.070;2024-01-16T05:00:00;96464.19;;;-0.80;82.34
6514;BME280;3290;47.716;9.070;2024-01-16T05:02:25;96459.75;;;-0.54;81.87
6514;BME280;3290;47.716;9.070;2024-01-16T05:04:51;96452.66;;;-0.68;82.88
6514;BME280;3290;47.716;9.070;2024-01-16T05:07:20;96455.78;;;-0.98;83.82
6514;BME280;3290;47.716;9.070;2024-01-16T05:09:48;96448.91;;;-1.30;85.60
6514;BME280;3290;47.716;9.070;2024-01-16T05:12:13;96449.25;;;-1.25;85.80
6514;BME280;3290;47.716;9.070;2024-01-16T05:14:39;96444.13;;;-1.18;85.39
6514;BME280;3290;47.716;9.070;2024-01-16T05:17:04;96437.72;;;-1.21;85.53
6514;BME280;3290;47.716;9.070;2024-01-16T05:19:29;96436.19;;;-1.40;87.03
6514;BME280;3290;47.716;9.070;2024-01-16T05:21:55;96435.56;;;-1.42;86.50
6514;BME280;3290;47.716;9.070;2024-01-16T05:24:20;96432.94;;;-1.09;88.07
6514;BME280;3290;47.716;9.070;2024-01-16T05:26:46;96429.38;;;-1.16;87.59
6514;BME280;3290;47.716;9.070;2024-01-16T05:29:11;96431.63;;;-1.20;87.45
6514;BME280;3290;47.716;9.070;2024-01-16T05:31:41;96424.41;;;-1.17;86.46
6514;BME280;3290;47.716;9.070;2024-01-16T05:34:07;96421.22;;;-1.11;86.38
6514;BME280;3290;47.716;9.070;2024-01-16T05:36:33;96412.50;;;-1.18;86.55
6514;BME280;3290;47.716;9.070;2024-01-16T05:38:58;96409.16;;;-1.19;86.78
6514;BME280;3290;47.716;9.070;2024-01-16T05:41:23;96410.16;;;-1.04;86.69
6514;BME280;3290;47.716;9.070;2024-01-16T05:43:49;96414.28;;;-1.11;86.57
6514;BME280;3290;47.716;9.070;2024-01-16T05:46:14;96405.34;;;-1.07;87.01
6514;BME280;3290;47.716;9.070;2024-01-16T05:48:40;96390.53;;;-1.13;86.87
6514;BME280;3290;47.716;9.070;2024-01-16T05:51:05;96399.50;;;-1.17;86.74
6514;BME280;3290;47.716;9.070;2024-01-16T05:53:30;96397.28;;;-1.12;85.94
6514;BME280;3290;47.716;9.070;2024-01-16T05:55:56;96396.31;;;-1.11;86.77
6514;BME280;3290;47.716;9.070;2024-01-16T05:58:22;96391.59;;;-1.31;87.12
6514;BME280;3290;47.716;9.070;2024-01-16T06:00:47;96402.31;;;-1.43;88.72
6514;BME280;3290;47.716;9.070;2024-01-16T06:03:12;96394.69;;;-1.20;87.71
6514;BME280;3290;47.716;9.070;2024-01-16T06:05:38;96388.25;;;-1.23;88.16
6514;BME280;3290;47.716;9.070;2024-01-16T06:08:03;96392.31;;;-1.13;88.15
6514;BME280;3290;47.716;9.070;2024-01-16T06:10:29;96399.88;;;-1.04;87.30
6514;BME280;3290;47.716;9.070;2024-01-16T06:12:54;96405.94;;;-1.13;86.95
6514;BME280;3290;47.716;9.070;2024-01-16T06:15:19;96401.75;;;-1.21;88.05
6514;BME280;3290;47.716;9.070;2024-01-16T06:17:45;96399.72;;;-1.10;88.06
6514;BME280;3290;47.716;9.070;2024-01-16T06:20:10;96407.56;;;-1.04;87.77
6514;BME280;3290;47.716;9.070;2024-01-16T06:22:36;96406.03;;;-0.89;86.73
6514;BME280;3290;47.716;9.070;2024-01-16T06:25:01;96406.63;;;-1.03;87.32
6514;BME280;3290;47.716;9.070;2024-01-16T06:27:27;96411.13;;;-0.97;86.87
6514;BME280;3290;47.716;9.070;2024-01-16T06:29:52;96412.78;;;-0.80;86.00
6514;BME280;3290;47.716;9.070;2024-01-16T06:32:18;96409.69;;;-0.91;85.99
6514;BME280;3290;47.716;9.070;2024-01-16T06:34:43;96411.13;;;-0.97;86.34
6514;BME280;3290;47.716;9.070;2024-01-16T06:37:09;96410.78;;;-1.10;86.42
6514;BME280;3290;47.716;9.070;2024-01-16T06:39:35;96407.88;;;-1.15;87.11
6514;BME280;3290;47.716;9.070;2024-01-16T06:42:00;96406.00;;;-0.97;86.73
6514;BME280;3290;47.716;9.070;2024-01-16T06:44:25;96392.97;;;-0.95;86.32
6514;BME280;3290;47.716;9.070;2024-01-16T06:46:51;96399.88;;;-1.04;87.02
6514;BME280;3290;47.716;9.070;2024-01-16T06:49:16;96398.88;;;-1.11;87.35
6514;BME280;3290;47.716;9.070;2024-01-16T06:51:42;96406.09;;;-1.22;87.54
6514;BME280;3290;47.716;9.070;2024-01-16T06:54:07;96408.38;;;-1.11;87.69
6514;BME280;3290;47.716;9.070;2024-01-16T06:56:32;96399.22;;;-1.06;86.73
6514;BME280;3290;47.716;9.070;2024-01-16T06:58:58;96402.78;;;-1.07;86.59
6514;BME280;3290;47.716;9.070;2024-01-16T07:01:23;96401.75;;;-1.21;86.67
6514;BME280;3290;47.716;9.070;2024-01-16T07:03:49;96405.25;;;-1.30;86.65
6514;BME280;3290;47.716;9.070;2024-01-16T07:06:14;96409.50;;;-1.14;85.79
6514;BME280;3290;47.716;9.070;2024-01-16T07:08:39;96413.09;;;-1.32;86.49
6514;BME280;3290;47.716;9.070;2024-01-16T07:11:05;96401.88;;;-1.31;86.67
6514;BME280;3290;47.716;9.070;2024-01-16T07:13:34;96405.94;;;-1.13;86.05
6514;BME280;3290;47.716;9.070;2024-01-16T07:15:59;96390.91;;;-1.41;86.44
6514;BME280;3290;47.716;9.070;2024-01-16T07:18:27;96394.81;;;-1.29;86.52
6514;BME280;3290;47.716;9.070;2024-01-16T07:20:52;96387.56;;;-1.33;86.62
6514;BME280;3290;47.716;9.070;2024-01-16T07:23:18;96379.91;;;-1.25;87.11
6514;BME280;3290;47.716;9.070;2024-01-16T07:25:43;96382.34;;;-1.90;88.51
6514;BME280;3290;47.716;9.070;2024-01-16T07:28:08;96384.81;;;-2.06;89.08
6514;BME280;3290;47.716;9.070;2024-01-16T07:30:34;96383.03;;;-2.05;89.31
6514;BME280;3290;47.716;9.070;2024-01-16T07:32:59;96393.91;;;-2.11;89.97
6514;BME280;3290;47.716;9.070;2024-01-16T07:35:24;96386.69;;;-1.91;89.42
6514;BME280;3290;47.716;9.070;2024-01-16T07:37:50;96392.81;;;-1.84;89.14
6514;BME280;3290;47.716;9.070;2024-01-16T07:40:15;96382.31;;;-1.65;88.28
6514;BME280;3290;47.716;9.070;2024-01-16T07:42:42;96380.56;;;-1.16;86.30
6514;BME280;3290;47.716;9.070;2024-01-16T07:45:07;96381.78;;;-1.43;86.32
6514;BME280;3290;47.716;9.070;2024-01-16T07:47:33;96379.47;;;-1.05;84.96
6514;BME280;3290;47.716;9.070;2024-01-16T07:49:59;96381.31;;;-0.35;82.62
6514;BME280;3290;47.716;9.070;2024-01-16T07:52:26;96374.22;;;1.65;74.84
6514;BME280;3290;47.716;9.070;2024-01-16T07:54:52;96379.25;;;3.45;68.34
6514;BME280;3290;47.716;9.070;2024-01-16T07:57:17;96378.78;;;3.21;64.48
6514;BME280;3290;47.716;9.070;2024-01-16T07:59:43;96381.28;;;2.65;66.42
6514;BME280;3290;47.716;9.070;2024-01-16T08:02:08;96380.56;;;3.56;65.19
6514;BME280;3290;47.716;9.070;2024-01-16T08:04:34;96379.78;;;2.71;64.39
6514;BME280;3290;47.716;9.070;2024-01-16T08:06:59;96378.44;;;4.07;60.78
6514;BME280;3290;47.716;9.070;2024-01-16T08:09:25;96381.97;;;3.58;62.39
6514;BME280;3290;47.716;9.070;2024-01-16T08:11:51;96378.50;;;2.81;64.53
6514;BME280;3290;47.716;9.070;2024-01-16T08:14:16;96377.91;;;3.14;65.36
6514;BME280;3290;47.716;9.070;2024-01-16T08:16:41;96382.28;;;2.78;63.63
6514;BME280;3290;47.716;9.070;2024-01-16T08:19:07;96369.59;;;2.98;63.77
6514;BME280;3290;47.716;9.070;2024-01-16T08:21:32;96371.50;;;2.75;63.40
6514;BME280;3290;47.716;9.070;2024-01-16T08:23:58;96371.22;;;2.56;65.53
6514;BME280;3290;47.716;9.070;2024-01-16T08:26:23;96363.09;;;1.65;67.95
6514;BME280;3290;47.716;9.070;2024-01-16T08:28:49;96360.50;;;2.01;67.35
6514;BME280;3290;47.716;9.070;2024-01-16T08:31:18;96361.00;;;1.60;70.03
6514;BME280;3290;47.716;9.070;2024-01-16T08:33:44;96360.41;;;2.09;69.08
6514;BME280;3290;47.716;9.070;2024-01-16T08:36:10;96364.06;;;2.00;70.13
6514;BME280;3290;47.716;9.070;2024-01-16T08:38:35;96366.84;;;2.71;68.17
6514;BME280;3290;47.716;9.070;2024-01-16T08:41:01;96360.91;;;2.56;66.27
6514;BME280;3290;47.716;9.070;2024-01-16T08:43:26;96356.75;;;2.76;65.70
6514;BME280;3290;47.716;9.070;2024-01-16T08:45:51;96362.47;;;2.14;67.14
6514;BME280;3290;47.716;9.070;2024-01-16T08:48:17;96349.84;;;2.97;67.54
6514;BME280;3290;47.716;9.070;2024-01-16T08:50:42;96359.38;;;1.82;68.38
6514;BME280;3290;47.716;9.070;2024-01-16T08:53:07;96362.66;;;2.55;68.60
6514;BME280;3290;47.716;9.070;2024-01-16T08:55:33;96356.06;;;3.99;61.39
6514;BME280;3290;47.716;9.070;2024-01-16T08:57:58;96357.19;;;3.91;60.52
6514;BME280;3290;47.716;9.070;2024-01-16T09:00:24;96350.53;;;4.70;60.54
6514;BME280;3290;47.716;9.070;2024-01-16T09:02:50;96352.22;;;5.68;56.08
6514;BME280;3290;47.716;9.070;2024-01-16T09:05:16;96355.41;;;4.18;59.18
6514;BME280;3290;47.716;9.070;2024-01-16T09:07:41;96352.56;;;3.45;61.43
6514;BME280;3290;47.716;9.070;2024-01-16T09:10:07;96347.28;;;3.53;60.82
6514;BME280;3290;47.716;9.070;2024-01-16T09:12:33;96341.88;;;5.03;56.79
6514;BME280;3290;47.716;9.070;2024-01-16T09:14:58;96355.72;;;3.40;61.73
6514;BME280;3290;47.716;9.070;2024-01-16T09:17:24;96349.22;;;3.92;60.12
6514;BME280;3290;47.716;9.070;2024-01-16T09:19:51;96347.31;;;4.68;57.25
6514;BME280;3290;47.716;9.070;2024-01-16T09:22:17;96345.22;;;4.90;57.62
6514;BME280;3290;47.716;9.070;2024-01-16T09:24:43;96357.59;;;4.21;60.34
6514;BME280;3290;47.716;9.070;2024-01-16T09:27:08;96346.03;;;5.69;54.81
6514;BME280;3290;47.716;9.070;2024-01-16T09:29:38;96339.88;;;5.90;54.24
6514;BME280;3290;47.716;9.070;2024-01-16T09:32:03;96343.69;;;5.94;54.50
6514;BME280;3290;47.716;9.070;2024-01-16T09:34:29;96348.22;;;5.66;54.42
6514;BME280;3290;47.716;9.070;2024-01-16T09:36:55;96343.97;;;5.33;56.89
6514;BME280;3290;47.716;9.070;2024-01-16T09:39:24;96342.97;;;4.81;57.15
6514;BME280;3290;47.716;9.070;2024-01-16T09:41:49;96345.56;;;4.81;57.77
6514;BME280;3290;47.716;9.070;2024-01-16T09:44:15;96342.69;;;6.27;54.46
6514;BME280;3290;47.716;9.070;2024-01-16T09:46:42;96345.69;;;5.98;54.37
6514;BME280;3290;47.716;9.070;2024-01-16T09:49:11;96345.06;;;6.41;53.72
6514;BME280;3290;47.716;9.070;2024-01-16T09:51:37;96341.44;;;7.11;53.35
6514;BME280;3290;47.716;9.070;2024-01-16T09:54:03;96335.03;;;7.81;51.09
6514;BME280;3290;47.716;9.070;2024-01-16T09:56:35;96339.19;;;7.21;51.46
6514;BME280;3290;47.716;9.070;2024-01-16T09:59:05;96338.88;;;7.42;50.20
6514;BME280;3290;47.716;9.070;2024-01-16T10:01:33;96329.97;;;7.56;50.02
6514;BME280;3290;47.716;9.070;2024-01-16T10:03:59;96326.28;;;6.95;52.06
6514;BME280;3290;47.716;9.070;2024-01-16T10:06:27;96331.09;;;7.66;50.75
6514;BME280;3290;47.716;9.070;2024-01-16T10:08:52;96330.84;;;7.43;50.33
6514;BME280;3290;47.716;9.070;2024-01-16T10:11:18;96327.81;;;5.37;55.41
6514;BME280;3290;47.716;9.070;2024-01-16T10:13:44;96327.97;;;4.64;59.25
6514;BME280;3290;47.716;9.070;2024-01-16T10:16:10;96320.09;;;5.89;56.01
6514;BME280;3290;47.716;9.070;2024-01-16T10:18:35;96321.59;;;6.60;55.52
6514;BME280;3290;47.716;9.070;2024-01-16T10:21:03;96310.97;;;7.79;50.51
6514;BME280;3290;47.716;9.070;2024-01-16T10:23:32;96309.81;;;7.75;50.75
6514;BME280;3290;47.716;9.070;2024-01-16T10:26:10;96303.69;;;7.26;51.32
6514;BME280;3290;47.716;9.070;2024-01-16T10:28:37;96300.03;;;6.40;53.80
6514;BME280;3290;47.716;9.070;2024-01-16T10:31:03;96298.47;;;6.14;54.62
6514;BME280;3290;47.716;9.070;2024-01-16T10:33:29;96294.84;;;6.34;53.47
6514;BME280;3290;47.716;9.070;2024-01-16T10:38:36;96303.44;;;4.79;58.29
6514;BME280;3290;47.716;9.070;2024-01-16T10:43:34;96296.09;;;5.93;56.77
6514;BME280;3290;47.716;9.070;2024-01-16T10:48:45;96291.38;;;4.99;59.02
6514;BME280;3290;47.716;9.070;2024-01-16T10:51:23;96293.47;;;4.76;59.27
6514;BME280;3290;47.716;9.070;2024-01-16T10:53:49;96277.47;;;5.51;57.66
6514;BME280;3290;47.716;9.070;2024-01-16T10:56:17;96275.69;;;5.84;57.15
6514;BME280;3290;47.716;9.070;2024-01-16T10:58:43;96277.66;;;5.37;58.25
6514;BME280;3290;47.716;9.070;2024-01-16T11:01:15;96278.88;;;5.60;58.67
6514;BME280;3290;47.716;9.070;2024-01-16T11:03:47;96270.69;;;5.50;57.84
6514;BME280;3290;47.716;9.070;2024-01-16T11:06:18;96279.28;;;5.57;60.61
6514;BME280;3290;47.716;9.070;2024-01-16T11:08:47;96274.81;;;6.35;56.84
6514;BME280;3290;47.716;9.070;2024-01-16T11:11:13;96280.91;;;5.90;57.60
6514;BME280;3290;47.716;9.070;2024-01-16T11:13:39;96286.06;;;5.32;58.53
6514;BME280;3290;47.716;9.070;2024-01-16T11:16:08;96274.44;;;5.28;59.21
6514;BME280;3290;47.716;9.070;2024-01-16T11:18:35;96278.09;;;5.79;57.11
6514;BME280;3290;47.716;9.070;2024-01-16T11:21:02;96272.47;;;5.30;60.28
6514;BME280;3290;47.716;9.070;2024-01-16T11:23:29;96262.03;;;5.05;59.74
6514;BME280;3290;47.716;9.070;2024-01-16T11:25:55;96264.03;;;5.03;59.82
6514;BME280;3290;47.716;9.070;2024-01-16T11:28:27;96252.34;;;4.73;60.99
6514;BME280;3290;47.716;9.070;2024-01-16T11:30:53;96253.03;;;4.41;63.20
6514;BME280;3290;47.716;9.070;2024-01-16T11:35:59;96242.34;;;4.70;63.17
6514;BME280;3290;47.716;9.070;2024-01-16T11:38:25;96252.56;;;4.78;61.18
6514;BME280;3290;47.716;9.070;2024-01-16T11:40:54;96253.69;;;5.22;60.01
6514;BME280;3290;47.716;9.070;2024-01-16T11:48:30;96241.72;;;5.92;58.15
6514;BME280;3290;47.716;9.070;2024-01-16T11:50:55;96246.66;;;5.03;59.48
6514;BME280;3290;47.716;9.070;2024-01-16T11:56:27;96232.72;;;5.43;60.16
6514;BME280;3290;47.716;9.070;2024-01-16T11:59:14;96226.53;;;5.50;59.44
6514;BME280;3290;47.716;9.070;2024-01-16T12:01:45;96222.53;;;5.54;61.10
6514;BME280;3290;47.716;9.070;2024-01-16T12:04:11;96206.16;;;5.73;59.70
6514;BME280;3290;47.716;9.070;2024-01-16T12:06:37;96204.13;;;6.00;58.74
6514;BME280;3290;47.716;9.070;2024-01-16T12:09:18;96197.34;;;5.35;61.80
6514;BME280;3290;47.716;9.070;2024-01-16T12:11:44;96188.94;;;5.72;59.67
6514;BME280;3290;47.716;9.070;2024-01-16T12:14:21;96189.78;;;6.35;58.39
6514;BME280;3290;47.716;9.070;2024-01-16T12:16:46;96186.78;;;6.38;57.45
6514;BME280;3290;47.716;9.070;2024-01-16T12:19:13;96185.41;;;6.29;56.93
6514;BME280;3290;47.716;9.070;2024-01-16T12:21:41;96198.97;;;6.44;56.67
6514;BME280;3290;47.716;9.070;2024-01-16T12:24:07;96191.94;;;7.43;56.25
6514;BME280;3290;47.716;9.070;2024-01-16T12:26:32;96181.16;;;7.63;55.40
6514;BME280;3290;47.716;9.070;2024-01-16T12:28:58;96172.78;;;8.21;51.94
6514;BME280;3290;47.716;9.070;2024-01-16T12:31:24;96187.66;;;7.30;54.72
6514;BME280;3290;47.716;9.070;2024-01-16T12:33:51;96191.78;;;6.77;55.60
6514;BME280;3290;47.716;9.070;2024-01-16T12:36:16;96177.31;;;8.26;53.80
6514;BME280;3290;47.716;9.070;2024-01-16T12:38:43;96176.84;;;8.35;51.52
6514;BME280;3290;47.716;9.070;2024-01-16T12:41:10;96164.53;;;9.12;50.79
6514;BME280;3290;47.716;9.070;2024-01-16T12:43:35;96162.00;;;8.65;51.51
6514;BME280;3290;47.716;9.070;2024-01-16T12:46:02;96159.13;;;9.24;49.14
6514;BME280;3290;47.716;9.070;2024-01-16T12:48:28;96152.44;;;8.88;48.48
6514;BME280;3290;47.716;9.070;2024-01-16T12:51:02;96142.34;;;10.11;46.29
6514;BME280;3290;47.716;9.070;2024-01-16T12:53:28;96144.94;;;9.32;48.69
6514;BME280;3290;47.716;9.070;2024-01-16T12:56:01;96151.09;;;10.17;45.48
6514;BME280;3290;47.716;9.070;2024-01-16T12:58:33;96147.69;;;9.59;45.93
6514;BME280;3290;47.716;9.070;2024-01-16T13:01:29;96157.50;;;8.72;48.68
6514;BME280;3290;47.716;9.070;2024-01-16T13:03:56;96138.69;;;10.12;45.15
6514;BME280;3290;47.716;9.070;2024-01-16T13:06:22;96132.78;;;10.56;44.27
6514;BME280;3290;47.716;9.070;2024-01-16T13:08:49;96125.66;;;10.01;44.47
6514;BME280;3290;47.716;9.070;2024-01-16T13:11:15;96122.28;;;8.63;47.70
6514;BME280;3290;47.716;9.070;2024-01-16T13:13:44;96127.22;;;9.57;44.92
6514;BME280;3290;47.716;9.070;2024-01-16T13:16:10;96113.94;;;10.70;43.69
6514;BME280;3290;47.716;9.070;2024-01-16T13:18:36;96122.97;;;9.21;47.26
6514;BME280;3290;47.716;9.070;2024-01-16T13:21:02;96113.47;;;10.73;43.38
6514;BME280;3290;47.716;9.070;2024-01-16T13:23:28;96109.47;;;10.98;42.41
6514;BME280;3290;47.716;9.070;2024-01-16T13:25:54;96102.38;;;9.02;46.40
6514;BME280;3290;47.716;9.070;2024-01-16T13:28:28;96105.97;;;9.53;46.38
6514;BME280;3290;47.716;9.070;2024-01-16T13:30:54;96101.75;;;8.01;49.35
6514;BME280;3290;47.716;9.070;2024-01-16T13:33:24;96097.00;;;8.86;47.78
6514;BME280;3290;47.716;9.070;2024-01-16T13:35:53;96094.94;;;9.40;45.79
6514;BME280;3290;47.716;9.070;2024-01-16T13:38:21;96090.78;;;10.51;44.43
6514;BME280;3290;47.716;9.070;2024-01-16T13:40:47;96086.09;;;10.80;44.33